Terminal Aerodrome Forecast
Issued by NWS

Home | Current Version | Previous Version | Text Only | Print | Product List | Glossary On
Versions: 1 2 3 4 5 6 7 8 9 10 11 12 13 14 15
000
FTUS43 KDTX 251128
TAFDET
TAF
KDET 251128Z 2512/2612 19011G18KT P6SM SCT080 BKN200
     FM251400 20014G24KT P6SM SCT045 BKN150
     FM251700 22018G28KT P6SM BKN045 BKN100
      TEMPO 2519/2523 6SM SHRA OVC040
     FM252300 21012G18KT P6SM SCT060 BKN200
     FM260300 21011KT P6SM FEW040 SCT200
     FM260900 20008KT 4SM BR BKN018=

USA.gov is the U.S. government's official web portal to all federal, state and local government web resources and services.